createdAt,value
2022-08-27T00:05:05.529Z,20.2
2022-08-27T00:10:56.194Z,20.3
2022-08-27T00:17:59.071Z,20.1
2022-08-27T00:23:48.478Z,20
2022-08-27T00:29:42.370Z,19.9
2022-08-27T00:35:35.006Z,20
2022-08-27T00:41:28.997Z,19.8
2022-08-27T00:47:20.566Z,19.9
2022-08-27T00:53:14.886Z,20.1
2022-08-27T00:59:06.333Z,19.9
2022-08-27T01:04:58.933Z,19.8
2022-08-27T01:10:57.077Z,20
2022-08-27T01:16:57.662Z,19.7
2022-08-27T01:22:50.954Z,19.8
2022-08-27T01:28:43.488Z,19.7
2022-08-27T01:34:36.905Z,19.7
2022-08-27T01:40:28.006Z,19.8
2022-08-27T01:46:20.992Z,19.7
2022-08-27T01:52:12.671Z,19.9
2022-08-27T01:58:05.436Z,19.7
2022-08-27T02:04:03.183Z,19.5
2022-08-27T02:09:55.799Z,19.4
2022-08-27T02:15:47.709Z,19.4
2022-08-27T02:21:38.608Z,19.4
2022-08-27T02:27:32.071Z,19.3
2022-08-27T02:33:24.973Z,19.1
2022-08-27T02:39:15.613Z,19.1
2022-08-27T02:45:09.474Z,19.2
2022-08-27T02:51:01.388Z,19.3
2022-08-27T02:57:03.989Z,19.1
2022-08-27T03:02:56.048Z,19.1
2022-08-27T03:08:52.521Z,18.9
2022-08-27T03:14:44.237Z,18.6
2022-08-27T03:20:34.816Z,18.6
2022-08-27T03:26:28.252Z,18.8
2022-08-27T03:32:19.118Z,18.8
2022-08-27T03:38:10.925Z,18.8
2022-08-27T03:44:01.617Z,18.7
2022-08-27T03:49:53.805Z,18.7
2022-08-27T03:55:45.262Z,18.6
2022-08-27T04:01:38.856Z,18.6
2022-08-27T04:07:31.382Z,18.5
2022-08-27T04:13:24.660Z,18.6
2022-08-27T04:19:17.306Z,18.6
2022-08-27T04:25:13.237Z,18.6
2022-08-27T04:31:12.888Z,18.6
2022-08-27T04:37:23.079Z,18.6
2022-08-27T04:43:13.523Z,18.5
2022-08-27T04:49:10.408Z,18.4
2022-08-27T04:55:05.591Z,18.5
2022-08-27T05:00:58.677Z,18.4
2022-08-27T05:06:51.171Z,18.5
2022-08-27T05:12:46.760Z,18.4
2022-08-27T05:18:41.733Z,18.4
2022-08-27T05:24:41.229Z,18.2
2022-08-27T05:30:39.224Z,18.4
2022-08-27T05:36:47.993Z,18.4
2022-08-27T05:42:40.799Z,18.4
2022-08-27T05:48:41.215Z,18.4
2022-08-27T05:54:32.846Z,18.5
2022-08-27T06:00:26.388Z,18.5
2022-08-27T06:06:17.504Z,18.6
2022-08-27T06:12:11.142Z,18.5
2022-08-27T06:18:01.862Z,18.5
2022-08-27T06:23:53.098Z,18.6
2022-08-27T06:29:44.595Z,18.4
2022-08-27T06:35:35.456Z,18.4
2022-08-27T06:41:26.666Z,18.3
2022-08-27T06:47:17.640Z,18.4
2022-08-27T06:53:11.934Z,18.4
2022-08-27T06:59:11.553Z,18.2
2022-08-27T07:05:02.930Z,18.3
2022-08-27T07:10:55.304Z,18.1
2022-08-27T07:16:45.814Z,18
2022-08-27T07:22:41.244Z,18
2022-08-27T07:28:33.677Z,17.9
2022-08-27T07:34:25.705Z,17.9
2022-08-27T07:40:17.122Z,18.1
2022-08-27T07:46:08.263Z,18.1
2022-08-27T07:52:00.978Z,18
2022-08-27T07:57:52.148Z,18
2022-08-27T08:03:43.625Z,18
2022-08-27T08:09:35.870Z,18.1
2022-08-27T08:15:26.790Z,18.1
2022-08-27T08:21:18.504Z,18.1
2022-08-27T08:27:10.542Z,18.4
2022-08-27T08:33:01.760Z,18.3
2022-08-27T08:38:52.824Z,18.3
2022-08-27T08:44:44.350Z,18.5
2022-08-27T08:50:35.366Z,18.2
2022-08-27T08:56:26.696Z,18.6
2022-08-27T09:02:17.810Z,18.4
2022-08-27T09:14:32.768Z,18.4
2022-08-27T09:20:25.457Z,18.6
2022-08-27T09:26:17.446Z,18.6
2022-08-27T09:32:08.376Z,18.5
2022-08-27T09:37:58.836Z,18.7
2022-08-27T09:43:49.853Z,18.6
2022-08-27T09:49:40.955Z,18.4
2022-08-27T09:55:33.138Z,18.6
2022-08-27T10:01:28.250Z,18.6
2022-08-27T10:07:20.954Z,18.5
2022-08-27T10:13:11.247Z,18.6
2022-08-27T10:19:03.498Z,18.6
2022-08-27T10:24:54.829Z,19
2022-08-27T10:30:46.333Z,18.7
2022-08-27T10:36:38.386Z,18.5
2022-08-27T10:42:31.016Z,18.8
2022-08-27T10:48:21.897Z,18.6
2022-08-27T10:54:13.204Z,18.6
2022-08-27T11:00:06.985Z,18.8
2022-08-27T11:05:58.772Z,18.8
2022-08-27T11:12:13.655Z,18.7
2022-08-27T11:18:04.064Z,18.8
2022-08-27T11:23:56.461Z,18.7
2022-08-27T11:29:47.663Z,18.8
2022-08-27T11:35:46.131Z,18.9
2022-08-27T11:41:44.939Z,18.8
2022-08-27T11:47:38.724Z,19
2022-08-27T11:53:30.168Z,18.9
2022-08-27T11:59:37.021Z,19.2
2022-08-27T12:05:29.258Z,19.3
2022-08-27T12:11:22.277Z,19.3
2022-08-27T12:17:13.118Z,19.3
2022-08-27T12:23:05.765Z,19.4
2022-08-27T12:28:57.903Z,19.5
2022-08-27T12:34:48.861Z,19.5
2022-08-27T12:40:46.843Z,19.7
2022-08-27T12:46:36.394Z,19.6
2022-08-27T12:52:26.419Z,19.6
2022-08-27T12:58:16.144Z,19.7
2022-08-27T13:04:06.061Z,19.6
2022-08-27T13:09:57.366Z,19.8
2022-08-27T13:15:48.173Z,20
2022-08-27T13:21:39.440Z,20.1
2022-08-27T13:27:29.441Z,20.1
2022-08-27T13:33:19.014Z,20.1
2022-08-27T13:39:08.269Z,20.1
2022-08-27T13:44:57.756Z,20.4
2022-08-27T13:50:50.902Z,20.4
2022-08-27T13:56:42.369Z,20.2
2022-08-27T14:02:36.502Z,20.3
2022-08-27T14:08:41.669Z,20.3
2022-08-27T14:14:33.383Z,20.6
2022-08-27T14:20:24.461Z,20.5
2022-08-27T14:26:16.053Z,20.7
2022-08-27T14:32:09.353Z,20.9
2022-08-27T14:38:01.301Z,20.9
2022-08-27T14:43:53.017Z,21
2022-08-27T14:49:45.821Z,21
2022-08-27T14:55:38.054Z,21
2022-08-27T15:01:37.458Z,20.7
2022-08-27T15:07:29.586Z,20.9
2022-08-27T15:13:22.765Z,21
2022-08-27T15:19:14.074Z,20.7
2022-08-27T15:25:06.440Z,20.8
2022-08-27T15:30:58.119Z,20.8
2022-08-27T15:36:49.989Z,20.9
2022-08-27T15:42:41.493Z,20.8
2022-08-27T15:48:33.839Z,20.8
2022-08-27T15:54:25.441Z,20.8
2022-08-27T16:00:16.642Z,20.7
2022-08-27T16:06:07.757Z,20.8
2022-08-27T16:12:04.871Z,20.8
2022-08-27T16:18:10.950Z,20.7
2022-08-27T16:24:03.862Z,20.8
2022-08-27T16:29:56.677Z,20.5
2022-08-27T16:35:51.011Z,20.6
2022-08-27T16:41:42.273Z,20.5
2022-08-27T16:47:34.610Z,20.5
2022-08-27T16:53:27.936Z,20.5
2022-08-27T16:59:19.249Z,20.5
2022-08-27T17:05:33.815Z,20.5
2022-08-27T17:11:25.417Z,20.3
2022-08-27T17:17:17.716Z,20.4
2022-08-27T17:23:09.101Z,20.3
2022-08-27T17:29:00.297Z,20.3
2022-08-27T17:34:51.717Z,20.3
2022-08-27T17:40:45.141Z,20.3
2022-08-27T17:46:41.343Z,20.3
2022-08-27T17:52:32.872Z,20.3
2022-08-27T17:58:24.894Z,20.3
2022-08-27T18:04:16.465Z,20.2
2022-08-27T18:10:06.867Z,20.2
2022-08-27T18:15:58.279Z,20.1
2022-08-27T18:21:50.194Z,20.2
2022-08-27T18:27:40.955Z,20.2
2022-08-27T18:33:32.062Z,20.1
2022-08-27T18:39:25.717Z,20
2022-08-27T18:45:20.118Z,20.1
2022-08-27T18:51:14.101Z,20
2022-08-27T18:57:05.505Z,19.9
2022-08-27T19:02:58.236Z,20
2022-08-27T19:08:50.636Z,20.1
2022-08-27T19:14:44.841Z,19.9
2022-08-27T19:20:38.077Z,20
2022-08-27T19:26:29.197Z,20
2022-08-27T19:32:21.374Z,19.9
2022-08-27T19:38:12.475Z,19.9
2022-08-27T19:44:03.865Z,19.8
2022-08-27T19:49:55.455Z,19.9
2022-08-27T19:55:46.633Z,19.9
2022-08-27T20:01:38.180Z,19.9
2022-08-27T20:07:30.647Z,19.9
2022-08-27T20:13:29.991Z,19.6
2022-08-27T20:19:38.699Z,19.8
2022-08-27T20:25:29.511Z,19.7
2022-08-27T20:31:19.908Z,19.7
2022-08-27T20:37:11.067Z,19.6
2022-08-27T20:43:02.221Z,19.7
2022-08-27T20:48:55.095Z,19.6
2022-08-27T20:54:46.583Z,19.5
2022-08-27T21:00:38.609Z,19.6
2022-08-27T21:06:33.010Z,19.6
2022-08-27T21:12:24.223Z,19.6
2022-08-27T21:18:15.547Z,19.5
2022-08-27T21:24:15.476Z,19.7
2022-08-27T21:30:07.275Z,19.6
2022-08-27T21:36:00.317Z,19.6
2022-08-27T21:41:59.475Z,19.6
2022-08-27T21:47:52.997Z,19.6
2022-08-27T21:53:44.667Z,19.5
2022-08-27T21:59:36.394Z,19.4
2022-08-27T22:05:28.767Z,19.4
2022-08-27T22:11:24.178Z,19.4
2022-08-27T22:17:19.451Z,19.6
2022-08-27T22:23:12.158Z,19.5
2022-08-27T22:29:08.170Z,19.5
2022-08-27T22:35:04.356Z,19.5
2022-08-27T22:40:59.302Z,19.5
2022-08-27T22:46:52.196Z,19.5
2022-08-27T22:52:43.744Z,19.5
2022-08-27T22:58:35.943Z,19.4
2022-08-27T23:04:53.479Z,19.4
2022-08-27T23:10:50.130Z,19.4
2022-08-27T23:16:43.128Z,19.4
2022-08-27T23:22:36.805Z,19.3
2022-08-27T23:28:31.035Z,19.3
2022-08-27T23:34:22.669Z,19.3
2022-08-27T23:40:14.757Z,19.3
2022-08-27T23:46:10.381Z,19.2
2022-08-27T23:52:03.287Z,19.2
2022-08-27T23:57:55.672Z,19.3
